This is the latest recevied weather packets stored in our database for station/object OE6JUE. If no packets are shown the sender has not sent any weather packets the latest 10 day(s).
| Time | Temp. | Humidity | Pressure | Rain* | Wind** | Luminosity | Snow |
|---|---|---|---|---|---|---|---|
| 1777988833 | 22.78° C | 36% | 1011.5 hPa | 0 mm | - | - | - |
| 1777988532 | 23.33° C | 35% | 1011.4 hPa | 0 mm | - | - | - |
| 1777988232 | 23.89° C | 35% | 1011.4 hPa | 0 mm | - | - | - |
| 1777987933 | 23.33° C | 35% | 1011.6 hPa | 0 mm | - | - | - |
| 1777987632 | 23.33° C | 34% | 1011.4 hPa | 0 mm | - | - | - |
| 1777987332 | 23.89° C | 34% | 1011.4 hPa | 0 mm | - | - | - |
| 1777987033 | 23.89° C | 34% | 1011.5 hPa | 0 mm | - | - | - |
| 1777986734 | 23.89° C | 35% | 1011.3 hPa | 0 mm | - | - | - |
| 1777986432 | 23.33° C | 34% | 1011.2 hPa | 0 mm | - | - | - |
| 1777986132 | 22.78° C | 36% | 1011.4 hPa | - | - | - | - |
| 1777985832 | 22.22° C | 40% | 1011.6 hPa | 0 mm | - | - | - |
| 1777985532 | 22.78° C | 34% | 1011.4 hPa | 0 mm | - | - | - |
| 1777985232 | 23.33° C | 34% | 1011.5 hPa | 0 mm | - | - | - |
| 1777984933 | 23.89° C | 32% | 1011.3 hPa | 0 mm | - | - | - |
| 1777984632 | 24.44° C | 31% | 1011.2 hPa | 0 mm | - | - | - |
| 1777984333 | 25° C | 31% | 1011.2 hPa | 0 mm | - | - | - |
| 1777984033 | 25.56° C | 31% | 1011.2 hPa | 0 mm | - | - | - |
| 1777983733 | 26.11° C | 30% | 1011.2 hPa | 0 mm | - | - | - |
| 1777983433 | 25.56° C | 30% | 1011.6 hPa | 0 mm | - | - | - |
| 1777983132 | 25.56° C | 31% | 1011.4 hPa | 0 mm | - | - | - |
| 1777982834 | 24.44° C | 30% | 1011.4 hPa | 0 mm | - | - | - |
| 1777982533 | 24.44° C | 30% | 1011.4 hPa | - | - | - | - |
| 1777982232 | 24.44° C | 30% | 1011.5 hPa | 0 mm | - | - | - |
| 1777981933 | 25° C | 30% | 1011.3 hPa | 0 mm | - | - | - |
| 1777981633 | 25° C | 30% | 1011.5 hPa | 0 mm | - | - | - |
* Rain latest hour (hover to see other rain measurements)
** Current wind speed in m/s (hover to see current wind gust speed)